Time;durP1;ratioP1;P1;durP2;ratioP2;P2;SDS_P1;SDS_P2;PMS_P1;PMS_P2;Temp;Humidity;BMP_temperature;BMP_pressure;BME280_temperature;BME280_humidity;BME280_pressure;Samples;Min_cycle;Max_cycle;Signal;HPM_P1;HPM_P2
2022/11/12 00:00:54;;;;;;;26.77;13.20;;;;;;;6.75;91.32;102171.09;5007309;28;20270;-65
2022/11/12 00:03:21;;;;;;;30.57;13.27;;;;;;;6.78;91.66;102189.69;5008386;28;20225;-65
2022/11/12 00:05:48;;;;;;;30.63;14.43;;;;;;;6.77;91.75;102175.63;5005327;28;20299;-65
2022/11/12 00:08:15;;;;;;;38.43;14.53;;;;;;;6.82;91.45;102182.09;5005660;28;20225;-65
2022/11/12 00:10:41;;;;;;;32.33;13.67;;;;;;;6.79;91.63;102180.97;5007192;28;20270;-65
2022/11/12 00:13:07;;;;;;;32.67;13.83;;;;;;;6.76;91.50;102178.16;5007874;28;20244;-65
2022/11/12 00:15:34;;;;;;;37.97;14.97;;;;;;;6.79;91.54;102181.88;5006321;28;20228;-65
2022/11/12 00:18:00;;;;;;;41.67;15.67;;;;;;;6.80;91.83;102177.53;5001608;28;20224;-65
2022/11/12 00:20:26;;;;;;;30.30;14.97;;;;;;;6.80;91.47;102183.69;5010744;28;20255;-65
2022/11/12 00:22:53;;;;;;;35.80;15.43;;;;;;;6.81;91.78;102177.66;5007597;28;20283;-65
2022/11/12 00:25:19;;;;;;;34.13;15.47;;;;;;;6.80;91.80;102178.44;5008890;28;20221;-65
2022/11/12 00:27:45;;;;;;;37.47;15.50;;;;;;;6.80;91.86;102182.78;4997011;28;20232;-65
2022/11/12 00:30:12;;;;;;;38.33;16.17;;;;;;;6.83;91.86;102189.19;5010761;28;20255;-65
2022/11/12 00:32:38;;;;;;;34.73;15.43;;;;;;;6.84;91.75;102183.09;5011474;28;20204;-65
2022/11/12 00:35:06;;;;;;;36.17;15.17;;;;;;;6.82;91.68;102192.63;5011371;28;20229;-65
2022/11/12 00:37:39;;;;;;;38.80;15.57;;;;;;;6.83;91.45;102186.53;5011994;28;20209;-65
2022/11/12 00:40:06;;;;;;;32.10;14.47;;;;;;;6.88;91.64;102198.25;5010650;28;20299;-65
2022/11/12 00:42:35;;;;;;;34.33;15.27;;;;;;;6.86;91.75;102196.34;5013062;28;20196;-65
2022/11/12 00:45:01;;;;;;;34.33;15.53;;;;;;;6.77;91.44;102191.44;5008948;28;20311;-65
2022/11/12 00:47:27;;;;;;;28.50;14.53;;;;;;;6.85;91.71;102203.34;5010001;28;20235;-65
2022/11/12 00:49:53;;;;;;;33.00;15.93;;;;;;;6.82;91.63;102189.09;5011080;28;20760;-65
2022/11/12 00:52:20;;;;;;;35.27;15.60;;;;;;;6.94;91.74;102202.03;5000732;28;20228;-65
2022/11/12 00:54:46;;;;;;;32.83;15.40;;;;;;;6.89;91.66;102200.06;5013618;28;20279;-65
2022/11/12 00:57:12;;;;;;;39.87;15.30;;;;;;;6.85;91.78;102186.63;5011759;28;20638;-65
2022/11/12 00:59:38;;;;;;;34.10;14.20;;;;;;;6.90;91.71;102193.97;5008150;28;20316;-65
2022/11/12 01:02:05;;;;;;;31.23;13.87;;;;;;;6.86;91.66;102191.97;5008252;28;20193;-65
2022/11/12 01:04:31;;;;;;;32.57;14.50;;;;;;;6.82;91.58;102184.72;5011034;28;20217;-65
2022/11/12 01:09:27;;;;;;;33.60;14.60;;;;;;;6.87;91.50;102191.16;5011625;28;20231;-67
2022/11/12 01:11:53;;;;;;;29.57;14.60;;;;;;;6.89;91.81;102194.78;5026334;28;20733;-67
2022/11/12 01:14:20;;;;;;;37.00;16.27;;;;;;;6.88;91.60;102190.34;5030441;28;20282;-67
2022/11/12 01:16:46;;;;;;;39.67;16.57;;;;;;;6.88;91.83;102192.97;5028080;28;20195;-68
2022/11/12 01:19:15;;;;;;;39.33;16.67;;;;;;;6.90;91.82;102193.06;5027110;28;20276;-68
2022/11/12 01:21:43;;;;;;;39.80;17.60;;;;;;;6.89;92.01;102194.78;5014743;28;20641;-68
2022/11/12 01:24:10;;;;;;;35.47;16.60;;;;;;;6.91;91.71;102184.34;5023500;28;20238;-68
2022/11/12 01:26:37;;;;;;;32.23;16.10;;;;;;;6.94;91.97;102186.22;5019160;28;20263;-66
2022/11/12 01:29:04;;;;;;;35.43;17.50;;;;;;;6.97;91.40;102184.69;5022720;28;20326;-69
2022/11/12 01:31:35;;;;;;;37.87;15.60;;;;;;;6.91;91.78;102177.34;5020569;28;20744;-67
2022/11/12 01:34:04;;;;;;;38.07;16.87;;;;;;;6.95;91.41;102188.97;5022522;28;20224;-68
2022/11/12 01:36:33;;;;;;;37.00;15.47;;;;;;;6.89;91.27;102183.34;5024964;28;20352;-69
2022/11/12 01:39:00;;;;;;;34.83;15.67;;;;;;;6.82;91.24;102184.72;5023747;28;20718;-68
2022/11/12 01:41:30;;;;;;;33.57;14.57;;;;;;;6.81;91.03;102182.91;5023547;28;20694;-67
2022/11/12 01:44:14;;;;;;;27.97;13.87;;;;;;;6.78;91.21;102182.69;5029619;28;20281;-68
2022/11/12 01:47:13;;;;;;;34.40;13.47;;;;;;;6.77;91.49;102185.25;5016616;28;20702;-68
2022/11/12 01:49:51;;;;;;;49.53;13.77;;;;;;;6.80;91.72;102180.16;5018515;28;20286;-68
2022/11/12 01:52:30;;;;;;;33.33;14.77;;;;;;;6.87;90.89;102167.47;5015835;28;20200;-67
2022/11/12 01:55:04;;;;;;;69.20;14.63;;;;;;;6.77;91.27;102170.34;5027503;28;20278;-68
2022/11/12 01:57:37;;;;;;;34.47;15.07;;;;;;;6.96;91.14;102174.06;5028258;28;20318;-68
2022/11/12 02:00:08;;;;;;;41.83;14.20;;;;;;;6.95;90.30;102172.25;5027183;28;20270;-68
2022/11/12 02:02:36;;;;;;;31.33;14.77;;;;;;;6.94;90.54;102167.81;5025201;28;20227;-68
2022/11/12 02:05:06;;;;;;;36.97;14.23;;;;;;;6.94;90.35;102163.44;5020548;28;20248;-68
2022/11/12 02:07:35;;;;;;;50.70;15.20;;;;;;;6.94;90.10;102160.81;5024379;28;20256;-69
2022/11/12 02:10:04;;;;;;;31.53;13.30;;;;;;;6.89;91.00;102170.19;5023360;28;20758;-68
2022/11/12 02:15:16;;;;;;;33.97;13.27;;;;;;;6.77;90.25;102154.56;5016220;28;20312;-69
2022/11/12 02:17:42;;;;;;;58.37;14.87;;;;;;;6.69;90.88;102161.13;5019900;28;20776;-68
2022/11/12 02:20:11;;;;;;;35.43;14.67;;;;;;;6.78;91.19;102153.75;5018076;28;20291;-68
2022/11/12 02:22:37;;;;;;;64.13;13.80;;;;;;;6.78;91.27;102152.84;5024017;28;20316;-67
2022/11/12 02:25:05;;;;;;;44.20;13.10;;;;;;;6.83;90.83;102152.31;5019155;28;20242;-67
2022/11/12 02:27:31;;;;;;;33.90;13.87;;;;;;;6.75;90.75;102152.66;5016162;28;20221;-68
2022/11/12 02:29:58;;;;;;;176.20;14.67;;;;;;;6.64;90.94;102148.53;5023865;28;20235;-68
2022/11/12 02:32:24;;;;;;;35.93;14.00;;;;;;;6.63;91.38;102151.97;5020349;28;20224;-66
2022/11/12 02:34:50;;;;;;;39.23;13.53;;;;;;;6.68;91.86;102154.03;5018437;28;20711;-68
2022/11/12 02:37:16;;;;;;;38.33;13.00;;;;;;;6.76;91.52;102160.66;5015009;28;20246;-68
2022/11/12 02:39:43;;;;;;;42.40;13.07;;;;;;;6.77;91.29;102154.56;5020510;28;20449;-68
2022/11/12 02:42:09;;;;;;;31.47;12.83;;;;;;;6.65;91.39;102151.25;5022570;28;21429;-71
2022/11/12 02:44:35;;;;;;;56.30;14.00;;;;;;;6.59;91.58;102154.44;5015509;28;20313;-68
2022/11/12 02:47:02;;;;;;;56.50;14.23;;;;;;;6.56;92.01;102148.09;5013493;28;20282;-68
2022/11/12 02:49:28;;;;;;;41.53;13.33;;;;;;;6.54;92.10;102150.63;5019096;28;20281;-70
2022/11/12 02:51:54;;;;;;;43.93;13.20;;;;;;;6.64;92.46;102144.16;5014362;28;20226;-68
2022/11/12 02:54:20;;;;;;;73.40;14.07;;;;;;;6.60;91.93;102152.72;5018781;28;20227;-68
2022/11/12 02:56:47;;;;;;;54.53;14.13;;;;;;;6.53;91.92;102151.44;5014367;28;20239;-68
2022/11/12 02:59:13;;;;;;;38.83;13.03;;;;;;;6.51;92.49;102146.91;5017546;28;20314;-68
2022/11/12 03:01:39;;;;;;;25.83;12.50;;;;;;;6.53;92.77;102154.09;5023017;28;20491;-68
2022/11/12 03:04:06;;;;;;;36.50;14.23;;;;;;;6.55;92.30;102147.19;5020213;28;20195;-69
2022/11/12 03:06:32;;;;;;;43.70;14.77;;;;;;;6.57;92.85;102153.44;5017529;28;20831;-67
2022/11/12 03:08:58;;;;;;;35.53;13.37;;;;;;;6.52;92.76;102135.56;5018367;28;20255;-68
2022/11/12 03:11:26;;;;;;;31.00;13.57;;;;;;;6.69;92.85;102154.94;5019306;28;20224;-69
2022/11/12 03:13:52;;;;;;;43.77;15.23;;;;;;;6.79;92.39;102154.66;5017001;28;20854;-68
2022/11/12 03:16:18;;;;;;;55.50;14.53;;;;;;;6.73;92.17;102152.56;5022142;28;20223;-68
2022/11/12 03:18:45;;;;;;;34.47;14.67;;;;;;;6.67;92.59;102149.59;5019287;28;20459;-68
2022/11/12 03:21:11;;;;;;;37.03;13.30;;;;;;;6.66;92.41;102150.41;5013055;28;20231;-70
2022/11/12 03:23:38;;;;;;;49.60;13.63;;;;;;;6.67;92.47;102162.75;5023060;28;20283;-68
2022/11/12 03:26:04;;;;;;;32.40;12.50;;;;;;;6.67;92.54;102156.59;5018909;28;20239;-68
2022/11/12 03:28:31;;;;;;;33.40;11.73;;;;;;;6.69;92.80;102154.94;5020016;28;20270;-67
2022/11/12 03:30:58;;;;;;;40.23;12.43;;;;;;;6.67;92.73;102151.31;5016670;28;20192;-68
2022/11/12 03:33:25;;;;;;;33.60;11.43;;;;;;;6.67;92.80;102146.97;5014938;28;20223;-68
2022/11/12 03:35:51;;;;;;;51.07;11.97;;;;;;;6.68;92.95;102153.13;5018369;28;20219;-68
2022/11/12 03:38:18;;;;;;;35.30;13.20;;;;;;;6.80;92.56;102138.94;5018075;28;20302;-67
2022/11/12 03:40:44;;;;;;;78.47;12.90;;;;;;;6.68;92.51;102132.97;5015396;28;20200;-68
2022/11/12 03:43:10;;;;;;;44.03;11.07;;;;;;;6.71;92.39;102141.06;5024270;28;20264;-70
2022/11/12 03:45:37;;;;;;;93.67;13.40;;;;;;;6.65;92.33;102137.16;5013637;28;20306;-68
2022/11/12 03:48:03;;;;;;;32.77;10.83;;;;;;;6.56;92.54;102138.47;5025407;28;20235;-70
2022/11/12 03:50:29;;;;;;;50.30;11.73;;;;;;;6.58;92.64;102139.47;5019588;28;20207;-68
2022/11/12 03:52:58;;;;;;;42.60;12.00;;;;;;;6.58;92.90;102143.81;5021968;28;20287;-68
2022/11/12 03:55:26;;;;;;;54.53;12.77;;;;;;;6.59;92.67;102137.72;5019003;28;20285;-66
2022/11/12 03:57:54;;;;;;;42.20;10.53;;;;;;;6.52;92.85;102125.94;5023754;28;20257;-67
2022/11/12 04:00:21;;;;;;;32.97;11.03;;;;;;;6.56;92.64;102133.19;5023681;28;20238;-68
2022/11/12 04:02:48;;;;;;;31.70;10.70;;;;;;;6.54;92.77;102133.94;5028251;28;20454;-68
2022/11/12 04:10:49;;;;;;;29.27;10.53;;;;;;;6.53;92.53;102129.50;5025556;28;20200;-68
2022/11/12 04:13:27;;;;;;;31.47;11.00;;;;;;;6.51;92.63;102129.41;5023132;28;20284;-67
2022/11/12 04:27:04;;;;;;;49.37;12.67;;;;;;;6.47;92.76;102148.47;5017692;28;20233;-68
2022/11/12 04:32:16;;;;;;;45.73;13.30;;;;;;;6.51;92.83;102139.03;5025747;28;20235;-69
2022/11/12 04:34:43;;;;;;;40.77;12.93;;;;;;;6.49;92.58;102136.31;5016659;28;20238;-68
2022/11/12 04:37:09;;;;;;;66.47;12.33;;;;;;;6.38;92.33;102133.84;5015306;28;20199;-69
2022/11/12 04:39:35;;;;;;;44.40;13.43;;;;;;;6.43;92.57;102135.94;5014203;28;20298;-67
2022/11/12 04:45:03;;;;;;;31.67;12.03;;;;;;;6.46;91.87;102138.75;5018984;28;20292;-68
2022/11/12 04:47:31;;;;;;;22.77;10.03;;;;;;;6.36;91.64;102151.25;5024683;28;20695;-68
2022/11/12 04:49:59;;;;;;;22.60;9.27;;;;;;;6.31;90.74;102153.63;5013101;28;20229;-67
2022/11/12 04:52:26;;;;;;;20.03;9.53;;;;;;;6.11;91.30;102163.00;5021066;28;20680;-69
2022/11/12 04:54:53;;;;;;;24.47;9.37;;;;;;;6.06;91.66;102159.19;5013876;28;20197;-68
2022/11/12 04:57:21;;;;;;;21.83;8.23;;;;;;;6.02;91.69;102164.16;5016425;28;20256;-68
2022/11/12 04:59:47;;;;;;;25.10;8.20;;;;;;;5.95;91.45;102163.78;5016934;28;20246;-69
2022/11/12 05:02:15;;;;;;;17.93;8.07;;;;;;;5.87;91.71;102174.63;5014956;28;20235;-68
2022/11/12 05:04:42;;;;;;;18.80;8.33;;;;;;;5.77;92.24;102165.28;5019337;28;20207;-67
2022/11/12 05:07:09;;;;;;;17.23;8.33;;;;;;;5.78;92.12;102168.81;5018110;28;20216;-67
2022/11/12 05:09:36;;;;;;;16.37;7.77;;;;;;;5.78;92.52;102163.53;5022514;28;20233;-67
2022/11/12 05:12:03;;;;;;;16.57;7.40;;;;;;;5.76;92.14;102165.19;5011755;28;20727;-66
2022/11/12 05:14:29;;;;;;;20.13;7.60;;;;;;;5.65;92.14;102159.28;5018065;28;20242;-67
2022/11/12 05:16:55;;;;;;;17.30;8.43;;;;;;;5.70;92.13;102165.72;5016303;28;20301;-69
2022/11/12 05:19:22;;;;;;;17.67;7.17;;;;;;;5.71;91.69;102153.47;5021733;28;20304;-68
2022/11/12 05:22:06;;;;;;;20.10;6.80;;;;;;;5.68;91.44;102163.81;5012621;28;20255;-70
2022/11/12 05:24:52;;;;;;;13.40;6.90;;;;;;;5.53;91.75;102166.38;5015415;28;20544;-68
2022/11/12 05:27:20;;;;;;;16.13;6.63;;;;;;;5.42;91.84;102160.47;5017552;28;20317;-67
2022/11/12 05:29:46;;;;;;;14.07;6.47;;;;;;;5.43;92.10;102157.03;5012812;28;20242;-67
2022/11/12 05:32:14;;;;;;;15.67;6.63;;;;;;;5.39;91.92;102168.16;5019137;28;20712;-69
2022/11/12 05:34:41;;;;;;;20.43;6.53;;;;;;;5.39;91.50;102160.28;5022207;28;20258;-69
2022/11/12 05:37:09;;;;;;;18.70;6.87;;;;;;;5.32;91.61;102169.50;5014951;28;20280;-67
2022/11/12 05:39:35;;;;;;;12.07;6.17;;;;;;;5.25;91.64;102167.28;5013923;28;20634;-70
2022/11/12 05:42:02;;;;;;;11.73;6.33;;;;;;;5.21;92.17;102173.16;5025674;28;20291;-67
2022/11/12 05:44:39;;;;;;;15.07;6.50;;;;;;;5.18;92.49;102161.53;5022566;28;20209;-68
2022/11/12 05:47:05;;;;;;;13.13;6.17;;;;;;;5.19;92.33;102158.09;5015917;28;20299;-68
2022/11/12 05:49:31;;;;;;;12.20;6.20;;;;;;;5.19;92.15;102172.13;5014656;28;20740;-66
2022/11/12 05:51:58;;;;;;;11.63;5.83;;;;;;;5.15;91.29;102166.59;5022063;28;20261;-67
2022/11/12 05:54:24;;;;;;;14.17;6.43;;;;;;;5.11;91.56;102168.13;5016177;28;20282;-67
2022/11/12 05:56:52;;;;;;;12.43;5.90;;;;;;;5.10;91.76;102170.66;5013090;28;20605;-66
2022/11/12 05:59:18;;;;;;;13.20;6.30;;;;;;;5.10;92.09;102165.38;5021475;28;20708;-67
2022/11/12 06:01:44;;;;;;;21.13;7.00;;;;;;;5.14;91.98;102173.56;5024698;28;20291;-68
2022/11/12 06:04:12;;;;;;;17.80;7.40;;;;;;;5.12;91.99;102172.56;5016476;28;20283;-68
2022/11/12 06:06:40;;;;;;;12.77;6.50;;;;;;;5.22;91.93;102179.31;5011024;28;20311;-67
2022/11/12 06:09:07;;;;;;;12.97;6.70;;;;;;;5.23;91.51;102170.63;5018665;28;20219;-67
2022/11/12 06:11:34;;;;;;;14.03;6.97;;;;;;;5.25;91.42;102192.66;5021878;28;20285;-67
2022/11/12 06:14:02;;;;;;;15.77;6.00;;;;;;;5.21;91.47;102186.31;5021063;28;20226;-69
2022/11/12 06:16:29;;;;;;;17.37;6.33;;;;;;;5.18;91.87;102193.94;5017868;28;20586;-67
2022/11/12 06:18:55;;;;;;;13.17;6.67;;;;;;;5.19;91.89;102186.97;5009970;28;20336;-68
2022/11/12 06:21:22;;;;;;;12.93;6.60;;;;;;;5.20;91.82;102192.38;5024070;28;20235;-69
2022/11/12 06:23:54;;;;;;;17.47;6.53;;;;;;;5.23;91.78;102181.16;5012027;28;20251;-67
2022/11/12 06:26:21;;;;;;;13.63;6.43;;;;;;;5.17;92.25;102188.59;5017181;28;20312;-67
2022/11/12 06:28:48;;;;;;;13.83;6.40;;;;;;;5.17;92.07;102189.50;5018408;28;20285;-69
2022/11/12 06:31:16;;;;;;;15.00;6.93;;;;;;;5.19;92.01;102181.72;5019966;28;20571;-67
2022/11/12 06:33:44;;;;;;;14.73;6.97;;;;;;;5.22;92.08;102189.84;5021949;28;20306;-67
2022/11/12 06:36:12;;;;;;;16.50;6.87;;;;;;;5.23;92.16;102194.28;5022694;28;20196;-69
2022/11/12 06:38:39;;;;;;;19.77;7.50;;;;;;;5.20;92.28;102188.78;5018125;28;20261;-69
2022/11/12 06:41:07;;;;;;;14.40;5.93;;;;;;;5.16;92.36;102192.94;5019103;28;20638;-65
2022/11/12 06:43:35;;;;;;;13.53;6.43;;;;;;;5.15;92.60;102195.47;5021345;28;20221;-67
2022/11/12 06:46:03;;;;;;;13.77;6.83;;;;;;;5.09;92.55;102185.50;5010965;28;20259;-68
2022/11/12 06:48:30;;;;;;;21.73;6.77;;;;;;;5.23;92.36;102194.28;5011839;28;20216;-65
2022/11/12 06:50:57;;;;;;;19.50;6.80;;;;;;;5.16;92.58;102186.78;5020001;28;20198;-67
2022/11/12 06:53:25;;;;;;;16.93;7.10;;;;;;;5.37;92.38;102195.13;5018830;28;20675;-69
2022/11/12 06:55:51;;;;;;;14.40;6.80;;;;;;;5.34;92.67;102198.47;5011377;28;20213;-68
2022/11/12 06:58:17;;;;;;;22.20;7.40;;;;;;;5.27;92.44;102185.78;5018342;28;20310;-67
2022/11/12 07:00:44;;;;;;;16.27;7.63;;;;;;;5.31;92.45;102180.81;5021075;28;20222;-67
2022/11/12 07:03:12;;;;;;;17.67;9.37;;;;;;;5.36;92.58;102194.22;5020706;28;20611;-66
2022/11/12 07:05:39;;;;;;;14.37;6.93;;;;;;;5.49;92.06;102196.81;5010489;28;20203;-67
2022/11/12 07:08:05;;;;;;;15.17;7.20;;;;;;;5.45;92.08;102193.91;5015773;28;20255;-68
2022/11/12 07:10:32;;;;;;;18.93;7.80;;;;;;;5.43;92.15;102180.66;5017968;28;20239;-69
2022/11/12 07:12:58;;;;;;;18.10;8.97;;;;;;;5.47;92.14;102176.50;5013732;28;20279;-68
2022/11/12 07:15:24;;;;;;;19.83;8.73;;;;;;;5.57;92.07;102192.94;5014346;28;20228;-68
2022/11/12 07:17:51;;;;;;;21.60;8.83;;;;;;;5.51;92.08;102189.94;5023926;28;20270;-67
2022/11/12 07:20:17;;;;;;;16.57;8.77;;;;;;;5.49;92.27;102196.81;5018701;28;20287;-67
2022/11/12 07:22:44;;;;;;;14.73;7.93;;;;;;;5.55;92.67;102191.03;5020577;23;20420;-66
2022/11/12 07:25:10;;;;;;;23.40;8.23;;;;;;;5.57;92.46;102192.03;4988640;28;20233;-66
2022/11/12 07:27:36;;;;;;;18.87;7.97;;;;;;;5.70;92.29;102202.50;4987186;28;20294;-66
2022/11/12 07:30:03;;;;;;;18.73;8.13;;;;;;;5.77;92.12;102199.44;4989205;28;20242;-66
2022/11/12 07:32:29;;;;;;;15.63;7.67;;;;;;;5.78;91.63;102198.63;4987891;28;20304;-66
2022/11/12 07:34:56;;;;;;;18.97;8.00;;;;;;;5.87;91.56;102206.16;4991089;28;20216;-66
2022/11/12 07:37:22;;;;;;;18.03;7.87;;;;;;;5.83;91.34;102206.78;4991883;28;20446;-66
2022/11/12 07:39:49;;;;;;;16.43;8.00;;;;;;;5.86;91.69;102212.25;4991169;28;20339;-66
2022/11/12 07:42:15;;;;;;;17.00;7.80;;;;;;;5.73;91.30;102205.31;4991704;28;20221;-66
2022/11/12 07:44:42;;;;;;;15.60;7.70;;;;;;;5.88;91.51;102214.16;4992986;28;20233;-66
2022/11/12 07:47:08;;;;;;;12.53;7.17;;;;;;;5.90;91.61;102216.91;4995299;28;20309;-66
2022/11/12 07:49:34;;;;;;;17.00;7.93;;;;;;;5.91;91.28;102216.09;4992905;28;20234;-66
2022/11/12 07:52:00;;;;;;;14.40;6.87;;;;;;;5.98;91.35;102208.66;4991768;28;20307;-66
2022/11/12 07:54:27;;;;;;;18.20;8.10;;;;;;;6.03;91.12;102208.06;4991650;28;20248;-66
2022/11/12 07:56:53;;;;;;;15.77;7.53;;;;;;;6.19;89.47;102205.53;4991336;28;20195;-66
2022/11/12 07:59:19;;;;;;;16.97;8.00;;;;;;;6.19;89.43;102202.91;4991593;28;20222;-66
2022/11/12 08:01:46;;;;;;;16.73;6.93;;;;;;;6.14;89.46;102193.84;4990345;28;20308;-66
2022/11/12 08:04:12;;;;;;;15.40;7.80;;;;;;;6.13;89.62;102208.72;4992981;28;20212;-66
2022/11/12 08:06:39;;;;;;;14.30;7.73;;;;;;;6.23;89.03;102202.25;4990934;28;20659;-66
2022/11/12 08:09:07;;;;;;;14.67;7.90;;;;;;;6.28;89.20;102201.72;4991626;28;20574;-66
2022/11/12 08:11:34;;;;;;;16.17;7.80;;;;;;;6.28;88.97;102204.34;4991126;28;20312;-66
2022/11/12 08:14:01;;;;;;;14.77;8.00;;;;;;;6.36;89.17;102202.16;4992394;28;20205;-66
2022/11/12 08:16:27;;;;;;;13.53;7.20;;;;;;;6.47;89.75;102209.00;4991439;28;20210;-66
2022/11/12 08:18:54;;;;;;;15.70;8.23;;;;;;;6.55;88.67;102204.19;4991320;28;20208;-66
2022/11/12 08:21:20;;;;;;;15.50;8.13;;;;;;;6.54;88.39;102208.53;4991045;28;20204;-66
2022/11/12 08:23:47;;;;;;;14.77;7.43;;;;;;;6.65;86.78;102198.63;5008734;28;20301;-66
2022/11/12 08:26:16;;;;;;;15.60;7.23;;;;;;;6.57;86.43;102195.56;5011259;28;20317;-66
2022/11/12 08:28:42;;;;;;;13.53;8.07;;;;;;;6.57;86.85;102200.81;5011401;28;20288;-66
2022/11/12 08:31:12;;;;;;;13.60;7.03;;;;;;;6.71;86.53;102195.44;5011609;28;20235;-66
2022/11/12 08:33:39;;;;;;;17.90;8.67;;;;;;;6.62;86.30;102192.28;5010653;28;20290;-66
2022/11/12 08:36:07;;;;;;;14.17;7.53;;;;;;;6.62;86.14;102205.44;5009001;28;20290;-66
2022/11/12 08:38:34;;;;;;;14.30;7.73;;;;;;;6.52;86.59;102186.47;5011683;28;20676;-66
2022/11/12 08:41:03;;;;;;;16.87;9.30;;;;;;;6.54;86.90;102195.38;5011002;28;20235;-66
2022/11/12 08:43:30;;;;;;;16.00;8.27;;;;;;;6.62;86.81;102189.66;5010535;28;20226;-66
2022/11/12 08:45:57;;;;;;;17.23;9.23;;;;;;;6.56;87.00;102206.91;5009098;28;20236;-66
2022/11/12 08:48:24;;;;;;;20.37;10.40;;;;;;;6.69;86.78;102197.06;5011203;28;20260;-66
2022/11/12 08:50:51;;;;;;;18.23;8.83;;;;;;;6.65;87.13;102196.00;5009861;28;20205;-66
2022/11/12 08:53:17;;;;;;;20.87;9.23;;;;;;;6.80;87.66;102198.59;5010312;28;20313;-66
2022/11/12 08:55:43;;;;;;;18.60;9.40;;;;;;;6.91;87.07;102198.41;5010106;28;20294;-66
2022/11/12 08:58:10;;;;;;;17.13;9.00;;;;;;;6.93;87.19;102201.13;5011820;28;20222;-66
2022/11/12 09:00:42;;;;;;;17.33;9.03;;;;;;;7.11;86.19;102201.25;5009736;28;20287;-66
2022/11/12 09:03:17;;;;;;;16.93;8.73;;;;;;;7.14;85.49;102204.06;5009386;28;20280;-66
2022/11/12 09:05:44;;;;;;;20.50;10.57;;;;;;;7.08;85.07;102195.81;5008624;28;20280;-66
2022/11/12 09:08:13;;;;;;;20.63;10.10;;;;;;;7.20;84.72;102202.69;5010635;28;20307;-66
2022/11/12 09:10:40;;;;;;;16.70;9.43;;;;;;;7.15;85.19;102201.50;5009706;28;20206;-66
2022/11/12 09:13:06;;;;;;;20.13;10.40;;;;;;;7.30;84.71;102206.75;5012008;28;20316;-66
2022/11/12 09:15:33;;;;;;;18.60;10.50;;;;;;;7.25;85.14;102205.59;4991963;28;20295;-66
2022/11/12 09:18:07;;;;;;;18.37;10.27;;;;;;;7.27;85.38;102200.41;5001484;28;20228;-66
2022/11/12 09:20:33;;;;;;;21.37;10.87;;;;;;;7.31;85.91;102208.56;5009534;28;20199;-66
2022/11/12 09:23:03;;;;;;;27.70;12.80;;;;;;;7.31;85.69;102205.03;5009171;28;20743;-66
2022/11/12 09:25:29;;;;;;;26.37;12.73;;;;;;;7.30;85.92;102201.47;5007891;28;20287;-66
2022/11/12 09:27:56;;;;;;;27.40;14.13;;;;;;;7.32;86.03;102205.09;5007822;28;20311;-66
2022/11/12 09:30:22;;;;;;;24.80;12.00;;;;;;;7.38;85.89;102204.53;5013060;28;20646;-66
2022/11/12 09:32:49;;;;;;;25.20;11.07;;;;;;;7.38;85.79;102207.16;5009370;28;20296;-66
2022/11/12 09:35:15;;;;;;;23.30;11.97;;;;;;;7.34;85.50;102203.47;5008923;28;20233;-66
2022/11/12 09:37:41;;;;;;;17.70;9.50;;;;;;;7.42;84.95;102207.41;5008088;28;20703;-66
2022/11/12 09:40:16;;;;;;;21.57;11.17;;;;;;;7.46;84.09;102198.84;5009652;28;20904;-66
2022/11/12 09:42:45;;;;;;;22.87;11.07;;;;;;;7.47;84.26;102205.94;5009040;28;20273;-66
2022/11/12 09:45:22;;;;;;;21.33;11.20;;;;;;;7.50;84.31;102194.66;5009442;28;20698;-66
2022/11/12 09:47:55;;;;;;;27.67;12.00;;;;;;;7.47;84.41;102195.38;5006688;28;20799;-66
2022/11/12 09:50:36;;;;;;;24.10;12.27;;;;;;;7.38;84.15;102205.44;5009031;28;20230;-66
2022/11/12 09:53:14;;;;;;;27.90;12.53;;;;;;;7.40;83.65;102202.88;5008061;28;20746;-65
2022/11/12 09:55:48;;;;;;;23.10;11.87;;;;;;;7.46;83.71;102208.50;5009022;28;20244;-66
2022/11/12 09:58:17;;;;;;;21.23;11.43;;;;;;;7.48;83.95;102198.94;5009574;28;20279;-66
2022/11/12 10:01:02;;;;;;;21.33;11.70;;;;;;;7.56;83.47;102208.16;5009689;28;20257;-66
2022/11/12 10:04:11;;;;;;;20.23;11.20;;;;;;;7.64;83.42;102205.97;5009710;28;20247;-66
2022/11/12 10:07:05;;;;;;;19.10;9.87;;;;;;;7.71;82.84;102205.47;5006046;28;20309;-66
2022/11/12 10:09:44;;;;;;;23.00;11.77;;;;;;;7.67;82.48;102204.41;4991862;28;20223;-66
2022/11/12 10:12:30;;;;;;;20.83;11.63;;;;;;;7.68;82.66;102203.56;5009602;28;20305;-66
2022/11/12 10:18:40;;;;;;;21.40;11.77;;;;;;;7.74;82.78;102189.81;5007722;28;20261;-66
2022/11/12 10:21:34;;;;;;;22.47;11.60;;;;;;;7.81;83.09;102187.56;5003363;28;20220;-66
2022/11/12 10:24:03;;;;;;;21.57;12.07;;;;;;;7.86;82.07;102174.63;5008965;28;20305;-66
2022/11/12 10:26:32;;;;;;;24.50;12.13;;;;;;;7.86;82.28;102167.63;5010317;28;20228;-66
2022/11/12 10:29:12;;;;;;;25.23;12.27;;;;;;;7.88;82.82;102174.72;5008134;28;20659;-66
2022/11/12 10:31:38;;;;;;;24.10;12.47;;;;;;;7.95;83.21;102164.56;5009233;28;20683;-66
2022/11/12 10:34:18;;;;;;;21.53;11.97;;;;;;;8.06;83.13;102178.34;5008454;28;20192;-66
2022/11/12 10:36:56;;;;;;;21.67;11.67;;;;;;;8.10;82.86;102170.66;4992205;28;20283;-66
2022/11/12 10:39:43;;;;;;;25.53;13.50;;;;;;;8.17;82.14;102171.88;4991623;28;20228;-66
2022/11/12 10:42:12;;;;;;;21.17;12.27;;;;;;;8.23;82.53;102168.63;4988291;28;20251;-67
2022/11/12 10:44:41;;;;;;;23.13;12.87;;;;;;;8.23;81.55;102177.47;5006712;28;20313;-66
2022/11/12 10:47:26;;;;;;;24.57;12.80;;;;;;;8.31;82.08;102173.47;5007324;28;20208;-67
2022/11/12 10:50:08;;;;;;;21.73;12.60;;;;;;;8.45;81.66;102156.66;5006259;28;20239;-66
2022/11/12 10:52:34;;;;;;;24.17;13.57;;;;;;;8.49;80.30;102157.72;5006090;28;20272;-67
2022/11/12 10:55:16;;;;;;;22.97;13.07;;;;;;;8.64;78.82;102157.56;5001246;28;20292;-66
2022/11/12 10:57:43;;;;;;;25.53;14.97;;;;;;;8.59;78.65;102161.72;5006129;28;20199;-67
2022/11/12 11:00:13;;;;;;;24.70;14.33;;;;;;;8.55;79.80;102157.09;5008574;28;20281;-67
2022/11/12 11:02:49;;;;;;;23.67;14.37;;;;;;;8.63;79.50;102155.75;5008726;28;20252;-67
2022/11/12 11:05:31;;;;;;;25.17;14.30;;;;;;;8.68;79.63;102157.78;5009245;28;20202;-66
2022/11/12 11:07:58;;;;;;;23.70;13.93;;;;;;;8.77;79.11;102158.22;5003064;28;20312;-66
2022/11/12 11:10:27;;;;;;;26.13;14.97;;;;;;;8.97;78.14;102156.56;5009386;28;20289;-66
2022/11/12 11:13:25;;;;;;;21.90;13.23;;;;;;;8.94;77.74;102155.50;5005950;28;20251;-66
2022/11/12 11:16:03;;;;;;;22.03;13.23;;;;;;;8.85;77.95;102142.78;5000434;28;20227;-66
2022/11/12 11:18:32;;;;;;;27.03;14.47;;;;;;;8.82;77.88;102145.25;4978921;28;20318;-66
2022/11/12 11:21:07;;;;;;;23.10;14.53;;;;;;;8.85;78.08;102139.22;5006111;28;20236;-67
2022/11/12 11:23:55;;;;;;;22.87;13.97;;;;;;;8.84;76.75;102140.97;4998634;28;20709;-67
2022/11/12 11:26:34;;;;;;;22.23;13.23;;;;;;;8.75;77.56;102140.50;5005312;28;20293;-66
2022/11/12 11:29:16;;;;;;;23.23;13.30;;;;;;;8.73;77.59;102144.78;5003713;28;20206;-66
2022/11/12 11:32:01;;;;;;;22.67;13.27;;;;;;;8.75;77.52;102143.13;5004122;28;20258;-67
2022/11/12 11:34:48;;;;;;;23.67;14.07;;;;;;;8.71;77.76;102141.16;5006894;28;20234;-66
2022/11/12 11:37:26;;;;;;;24.40;14.73;;;;;;;8.65;78.19;102125.94;5006067;28;20231;-66
2022/11/12 11:39:55;;;;;;;24.60;14.37;;;;;;;8.81;78.46;102143.47;5005336;28;20234;-67
2022/11/12 11:42:48;;;;;;;24.73;14.67;;;;;;;8.82;78.32;102134.69;5005754;28;20303;-67
2022/11/12 11:45:22;;;;;;;25.93;15.37;;;;;;;8.92;77.28;102128.13;5002799;28;20535;-67
2022/11/12 11:48:10;;;;;;;24.13;14.63;;;;;;;8.97;77.48;102123.94;5006812;28;20257;-67
2022/11/12 11:51:09;;;;;;;25.87;15.30;;;;;;;9.00;76.81;102121.44;5007313;28;20233;-67
2022/11/12 11:53:53;;;;;;;31.40;16.43;;;;;;;9.06;77.77;102112.06;4983570;28;20645;-67
2022/11/12 11:56:32;;;;;;;26.50;15.30;;;;;;;9.15;77.57;102110.69;4995416;28;20685;-66
2022/11/12 11:59:11;;;;;;;23.90;14.20;;;;;;;9.27;76.83;102114.81;5007800;28;20295;-66
2022/11/12 12:01:49;;;;;;;22.13;13.13;;;;;;;9.40;76.55;102114.53;5004676;28;20258;-66